Yaxian, China
Current Conditions -  °F | °C
As of 2:00 AM on Friday 30 Jan 2015 (Local Time) from ZJSY Reporting Station
Broken Clouds Broken Clouds  
Wind Chill: 70°   Ceiling: 5000
Heat Index: 70°   Visibility: 6mi
Dew Point: 63°   Wind: 7mph
Humidity: 78%   Direction: 90°E
Pressure: 30.03"   Gusts: NA
Location:  18.23°N, 109.52°E
Report Text: ZJSY 291800Z 09003MPS 060V130 9999 BKN050 21/17 Q1017 NOSIG
Loading
Personal Weather Stations






























Interactive Weather Map New forecast layout! Learn more

10-Day Weather Forecast

Advertisements
Track Severe Weather on mobile